Time;durP1;ratioP1;P1;durP2;ratioP2;P2;SDS_P1;SDS_P2;PMS_P1;PMS_P2;Temp;Humidity;BMP_temperature;BMP_pressure;BME280_temperature;BME280_humidity;BME280_pressure;Samples;Min_cycle;Max_cycle;Signal;HPM_P1;HPM_P2
2022/02/02 00:05:10;;;;;;;15.43;3.85;;;;;;;;;;5047423;28;20053;-63
2022/02/02 00:07:50;;;;;;;15.73;4.00;;;;;;;;;;5044836;28;20655;-63
2022/02/02 00:13:11;;;;;;;9.93;3.78;;;;;;;;;;5047046;28;20045;-63
2022/02/02 00:18:27;;;;;;;13.77;3.42;;;;;;;;;;5039938;28;20048;-63
2022/02/02 00:20:58;;;;;;;10.23;3.55;;;;;;;;;;5046576;28;20133;-63
2022/02/02 00:23:38;;;;;;;8.55;4.03;;;;;;;;;;5045054;28;20084;-63
2022/02/02 00:26:14;;;;;;;14.05;3.97;;;;;;;;;;5043380;28;20144;-63
2022/02/02 00:28:49;;;;;;;12.50;4.18;;;;;;;;;;5042404;28;20072;-63
2022/02/02 00:31:22;;;;;;;13.45;4.70;;;;;;;;;;5042303;28;20045;-63
2022/02/02 00:33:56;;;;;;;19.58;5.35;;;;;;;;;;5044733;28;20049;-63
2022/02/02 00:36:27;;;;;;;10.48;4.32;;;;;;;;;;5039811;28;20145;-63
2022/02/02 00:38:54;;;;;;;14.55;5.22;;;;;;;;;;5042470;28;20083;-63
2022/02/02 00:41:20;;;;;;;12.55;5.38;;;;;;;;;;5044652;28;20080;-63
2022/02/02 00:43:47;;;;;;;10.73;4.18;;;;;;;;;;5041437;28;20073;-63
2022/02/02 00:46:24;;;;;;;11.23;4.68;;;;;;;;;;5045041;28;20049;-63
2022/02/02 00:48:58;;;;;;;17.80;4.63;;;;;;;;;;5044203;28;20049;-64
2022/02/02 00:51:38;;;;;;;14.52;5.05;;;;;;;;;;5041479;28;20167;-63
2022/02/02 00:54:04;;;;;;;18.90;5.22;;;;;;;;;;5041720;28;20148;-63
2022/02/02 00:56:31;;;;;;;11.18;3.80;;;;;;;;;;5040445;28;20079;-63
2022/02/02 00:58:57;;;;;;;10.27;3.93;;;;;;;;;;5042039;28;20131;-63
2022/02/02 01:01:24;;;;;;;12.60;4.30;;;;;;;;;;5043206;28;20475;-63
2022/02/02 01:03:57;;;;;;;12.77;4.43;;;;;;;;;;5042680;28;20052;-63
2022/02/02 01:06:26;;;;;;;15.07;4.68;;;;;;;;;;5045331;28;20131;-63
2022/02/02 01:12:19;;;;;;;10.05;4.55;;;;;;;;;;5044614;28;20053;-63
2022/02/02 01:15:36;;;;;;;15.93;5.25;;;;;;;;;;5043547;28;20156;-64
2022/02/02 01:20:50;;;;;;;10.90;3.97;;;;;;;;;;4989461;28;20534;-63
2022/02/02 01:28:37;;;;;;;12.57;5.00;;;;;;;;;;5041334;28;20072;-63
2022/02/02 01:31:05;;;;;;;12.32;4.35;;;;;;;;;;5042684;28;20500;-64
2022/02/02 01:33:31;;;;;;;13.07;4.68;;;;;;;;;;5044082;28;20130;-63
2022/02/02 01:36:00;;;;;;;8.18;3.55;;;;;;;;;;5040249;28;20136;-63
2022/02/02 01:38:30;;;;;;;10.40;4.38;;;;;;;;;;5043183;28;20124;-63
2022/02/02 01:41:02;;;;;;;11.07;3.70;;;;;;;;;;5042050;28;20132;-63
2022/02/02 01:43:34;;;;;;;7.10;3.45;;;;;;;;;;5041634;28;20080;-63
2022/02/02 01:46:08;;;;;;;12.80;4.03;;;;;;;;;;5040983;28;20057;-63
2022/02/02 01:48:43;;;;;;;8.18;3.58;;;;;;;;;;5040306;28;20147;-63
2022/02/02 01:56:07;;;;;;;11.35;3.50;;;;;;;;;;5042460;28;20132;-63
2022/02/02 02:01:08;;;;;;;8.32;3.38;;;;;;;;;;5041694;28;20081;-63
2022/02/02 02:03:35;;;;;;;7.88;3.33;;;;;;;;;;5041152;28;20064;-63
2022/02/02 02:06:02;;;;;;;10.98;3.33;;;;;;;;;;5040959;28;20477;-63
2022/02/02 02:08:29;;;;;;;7.60;3.55;;;;;;;;;;5041624;28;20130;-63
2022/02/02 02:10:55;;;;;;;11.48;3.35;;;;;;;;;;5041440;28;20046;-63
2022/02/02 02:16:02;;;;;;;7.15;3.38;;;;;;;;;;5042624;28;20476;-63
2022/02/02 02:18:28;;;;;;;;;;;;;;;;;;5026453;28;20630;-64
2022/02/02 02:20:55;;;;;;;4.97;2.63;;;;;;;;;;5044410;28;19968;-63
2022/02/02 02:23:30;;;;;;;5.40;2.72;;;;;;;;;;5046041;28;20127;-63
2022/02/02 02:25:56;;;;;;;6.85;3.13;;;;;;;;;;5043094;28;20136;-63
2022/02/02 02:31:25;;;;;;;6.03;2.50;;;;;;;;;;5044486;28;20528;-63
2022/02/02 02:55:59;;;;;;;4.03;2.30;;;;;;;;;;5024078;28;20075;-63
2022/02/02 03:51:26;;;;;;;7.15;3.38;;;;;;;;;;5022063;28;20488;-64
2022/02/02 03:59:44;;;;;;;9.43;3.85;;;;;;;;;;4996183;28;20156;-63
2022/02/02 04:07:43;;;;;;;10.65;4.03;;;;;;;;;;5021178;28;20144;-63
2022/02/02 04:10:11;;;;;;;7.95;3.70;;;;;;;;;;5025949;28;20057;-63
2022/02/02 04:12:53;;;;;;;6.07;3.77;;;;;;;;;;5022617;28;20575;-63
2022/02/02 04:51:32;;;;;;;10.52;3.90;;;;;;;;;;5021775;28;20115;-63
2022/02/02 04:54:14;;;;;;;7.60;3.55;;;;;;;;;;5018799;28;20073;-63
2022/02/02 04:59:42;;;;;;;7.45;3.65;;;;;;;;;;5022056;28;20574;-63
2022/02/02 05:08:13;;;;;;;7.47;3.60;;;;;;;;;;4994733;28;20092;-63
2022/02/02 05:53:21;;;;;;;6.70;3.70;;;;;;;;;;5019757;28;20077;-63
2022/02/02 05:55:48;;;;;;;7.03;3.75;;;;;;;;;;5023913;28;20085;-63
2022/02/02 05:58:15;;;;;;;8.40;4.10;;;;;;;;;;5023213;28;20148;-63
2022/02/02 06:00:42;;;;;;;5.93;3.72;;;;;;;;;;5021943;28;20151;-64
2022/02/02 06:03:10;;;;;;;8.40;3.70;;;;;;;;;;5021953;28;20119;-63
2022/02/02 06:05:37;;;;;;;7.45;3.90;;;;;;;;;;5020838;28;20387;-63
2022/02/02 06:08:08;;;;;;;16.35;4.38;;;;;;;;;;5020841;28;20097;-63
2022/02/02 06:10:36;;;;;;;9.02;4.38;;;;;;;;;;5021875;28;20153;-63
2022/02/02 06:13:02;;;;;;;;;;;;;;;;;;5026378;28;20473;-63
2022/02/02 06:15:29;;;;;;;6.78;3.70;;;;;;;;;;5021471;28;19972;-63
2022/02/02 06:17:55;;;;;;;6.50;3.88;;;;;;;;;;5019305;28;20133;-63
2022/02/02 06:20:22;;;;;;;6.50;3.93;;;;;;;;;;5024026;28;20077;-63
2022/02/02 06:22:54;;;;;;;6.73;4.03;;;;;;;;;;5023165;28;20787;-63
2022/02/02 06:25:29;;;;;;;7.03;4.25;;;;;;;;;;5017560;28;20710;-63
2022/02/02 06:28:07;;;;;;;9.63;4.80;;;;;;;;;;5006588;28;20077;-63
2022/02/02 06:30:34;;;;;;;10.05;3.92;;;;;;;;;;5024860;28;20567;-63
2022/02/02 06:33:02;;;;;;;6.97;3.80;;;;;;;;;;5022288;28;20091;-63
2022/02/02 06:35:28;;;;;;;11.57;4.50;;;;;;;;;;5022802;28;20072;-63
2022/02/02 06:37:55;;;;;;;8.45;4.80;;;;;;;;;;5020949;28;20081;-63
2022/02/02 06:40:23;;;;;;;6.17;3.23;;;;;;;;;;5021165;28;20088;-63
2022/02/02 06:42:50;;;;;;;8.38;4.07;;;;;;;;;;5017754;28;20054;-63
2022/02/02 06:45:18;;;;;;;10.07;4.47;;;;;;;;;;5021160;28;20050;-63
2022/02/02 06:47:51;;;;;;;7.82;4.55;;;;;;;;;;5020007;28;20064;-63
2022/02/02 06:50:32;;;;;;;10.38;3.95;;;;;;;;;;5023246;28;20046;-62
2022/02/02 06:53:19;;;;;;;9.48;4.35;;;;;;;;;;5023177;28;20092;-63
2022/02/02 07:02:13;;;;;;;11.25;4.20;;;;;;;;;;4994335;28;20138;-63
2022/02/02 07:07:51;;;;;;;8.27;4.10;;;;;;;;;;5025025;28;20115;-63
2022/02/02 07:10:42;;;;;;;7.00;3.97;;;;;;;;;;5024169;28;20670;-63
2022/02/02 07:24:12;;;;;;;14.10;5.07;;;;;;;;;;5023517;28;20173;-63
2022/02/02 07:34:30;;;;;;;9.55;4.40;;;;;;;;;;5025713;28;20122;-63
2022/02/02 07:37:00;;;;;;;8.38;4.35;;;;;;;;;;5026750;28;20077;-63
2022/02/02 07:39:28;;;;;;;8.07;4.13;;;;;;;;;;5024172;28;20474;-63
2022/02/02 07:41:59;;;;;;;11.02;3.70;;;;;;;;;;5025570;28;20100;-63
2022/02/02 07:44:26;;;;;;;11.55;4.07;;;;;;;;;;5026949;28;20501;-63
2022/02/02 07:46:55;;;;;;;8.23;4.25;;;;;;;;;;5024136;28;20132;-63
2022/02/02 07:49:34;;;;;;;6.75;3.80;;;;;;;;;;5022556;28;20076;-63
2022/02/02 07:52:09;;;;;;;6.90;3.92;;;;;;;;;;5023400;28;20136;-63
2022/02/02 07:54:39;;;;;;;9.52;4.50;;;;;;;;;;5025861;28;20570;-63
2022/02/02 07:57:27;;;;;;;10.10;4.80;;;;;;;;;;5019840;28;20053;-63
2022/02/02 07:59:56;;;;;;;6.95;4.28;;;;;;;;;;5022719;28;20128;-63
2022/02/02 08:02:39;;;;;;;8.52;4.30;;;;;;;;;;5023832;28;20543;-63
2022/02/02 08:05:12;;;;;;;6.65;3.92;;;;;;;;;;5024693;28;20079;-63
2022/02/02 08:07:44;;;;;;;12.85;4.30;;;;;;;;;;5020856;28;20049;-63
2022/02/02 08:10:17;;;;;;;8.50;4.32;;;;;;;;;;5021877;28;20087;-63
2022/02/02 08:12:55;;;;;;;7.70;3.97;;;;;;;;;;5023138;28;20054;-63
2022/02/02 08:15:23;;;;;;;9.60;3.92;;;;;;;;;;5020962;28;20593;-63
2022/02/02 08:17:51;;;;;;;6.65;4.00;;;;;;;;;;5024160;28;20145;-63
2022/02/02 08:20:18;;;;;;;7.65;4.63;;;;;;;;;;5025743;28;20092;-63
2022/02/02 08:22:45;;;;;;;9.25;4.38;;;;;;;;;;5024479;28;20163;-63
2022/02/02 08:25:25;;;;;;;10.95;4.63;;;;;;;;;;5022615;28;20088;-63
2022/02/02 08:27:54;;;;;;;6.45;4.30;;;;;;;;;;5023084;28;20097;-63
2022/02/02 08:30:23;;;;;;;8.15;4.55;;;;;;;;;;5024665;28;20073;-63
2022/02/02 08:32:57;;;;;;;8.57;4.22;;;;;;;;;;5019869;28;20045;-63
2022/02/02 08:35:26;;;;;;;11.63;4.25;;;;;;;;;;5022471;28;20077;-63
2022/02/02 08:38:08;;;;;;;8.88;3.88;;;;;;;;;;5021241;28;20130;-63
2022/02/02 08:43:34;;;;;;;7.72;4.20;;;;;;;;;;5001509;28;20562;-63
2022/02/02 08:46:14;;;;;;;8.55;4.57;;;;;;;;;;5022934;28;20057;-63
2022/02/02 08:48:43;;;;;;;8.30;4.53;;;;;;;;;;5026041;28;20072;-63
2022/02/02 08:51:14;;;;;;;6.85;4.28;;;;;;;;;;5024668;28;20089;-63
2022/02/02 08:54:11;;;;;;;10.48;4.82;;;;;;;;;;5021334;28;20046;-63
2022/02/02 08:59:10;;;;;;;10.55;4.43;;;;;;;;;;5021328;28;20141;-63
2022/02/02 09:01:38;;;;;;;7.38;3.75;;;;;;;;;;5021342;28;20050;-63
2022/02/02 09:06:51;;;;;;;9.77;4.72;;;;;;;;;;5022875;28;19967;-63
2022/02/02 09:09:24;;;;;;;7.00;3.90;;;;;;;;;;5025344;28;20102;-63
2022/02/02 09:20:24;;;;;;;9.35;5.55;;;;;;;;;;5022630;28;20085;-63
2022/02/02 09:25:43;;;;;;;11.43;5.30;;;;;;;;;;5023063;28;20136;-63
2022/02/02 09:36:28;;;;;;;8.45;4.25;;;;;;;;;;5021865;28;20085;-63
2022/02/02 09:38:59;;;;;;;10.45;4.55;;;;;;;;;;5023990;28;20133;-63
2022/02/02 09:41:46;;;;;;;7.28;4.00;;;;;;;;;;5024322;28;20603;-63
2022/02/02 09:44:23;;;;;;;7.72;4.05;;;;;;;;;;5019370;28;20274;-63
2022/02/02 09:47:01;;;;;;;5.70;3.80;;;;;;;;;;5020885;28;20424;-63
2022/02/02 09:49:45;;;;;;;7.55;4.47;;;;;;;;;;5020502;28;20081;-64
2022/02/02 09:52:17;;;;;;;7.95;4.13;;;;;;;;;;5022492;28;20059;-63
2022/02/02 09:54:59;;;;;;;7.72;4.38;;;;;;;;;;5024799;28;20058;-63
2022/02/02 10:05:57;;;;;;;9.40;4.18;;;;;;;;;;5019295;28;20073;-63
2022/02/02 10:14:24;;;;;;;6.43;3.88;;;;;;;;;;4999009;28;20617;-63
2022/02/02 10:16:51;;;;;;;7.85;4.13;;;;;;;;;;5021338;28;20052;-63
2022/02/02 10:19:19;;;;;;;7.57;4.20;;;;;;;;;;5020659;28;20141;-63
2022/02/02 10:21:46;;;;;;;7.07;4.50;;;;;;;;;;5021763;28;20141;-63
2022/02/02 10:24:12;;;;;;;6.80;3.67;;;;;;;;;;5019353;28;20132;-63
2022/02/02 10:26:43;;;;;;;6.25;3.58;;;;;;;;;;5024746;28;20057;-63
2022/02/02 10:29:10;;;;;;;6.72;4.07;;;;;;;;;;5025669;28;20050;-63
2022/02/02 10:31:48;;;;;;;7.25;3.95;;;;;;;;;;5023916;28;20132;-63
2022/02/02 10:34:17;;;;;;;8.70;3.63;;;;;;;;;;5021056;28;20065;-63
2022/02/02 10:36:44;;;;;;;8.85;3.85;;;;;;;;;;5027474;28;20073;-63
2022/02/02 10:39:14;;;;;;;9.75;3.15;;;;;;;;;;5025587;28;20092;-63
2022/02/02 10:41:52;;;;;;;6.43;3.70;;;;;;;;;;5026566;28;20052;-63
2022/02/02 10:44:38;;;;;;;6.03;3.80;;;;;;;;;;5021837;28;20092;-63
2022/02/02 10:47:25;;;;;;;7.53;3.70;;;;;;;;;;5024487;28;20185;-63
2022/02/02 10:50:22;;;;;;;7.22;3.63;;;;;;;;;;5024862;28;20152;-63
2022/02/02 10:53:12;;;;;;;6.13;3.53;;;;;;;;;;5024190;28;20081;-65
2022/02/02 10:56:04;;;;;;;6.03;3.30;;;;;;;;;;5022987;28;20056;-63
2022/02/02 11:06:41;;;;;;;6.40;3.95;;;;;;;;;;5022649;28;20520;-63
2022/02/02 11:09:08;;;;;;;6.10;4.20;;;;;;;;;;5025845;28;20551;-63
2022/02/02 11:11:42;;;;;;;6.25;4.03;;;;;;;;;;5024702;28;20076;-63
2022/02/02 11:14:13;;;;;;;5.35;3.58;;;;;;;;;;5019871;28;20065;-63
2022/02/02 11:16:48;;;;;;;6.20;3.72;;;;;;;;;;5022725;28;20060;-64
2022/02/02 11:19:16;;;;;;;6.18;4.03;;;;;;;;;;5020710;28;20150;-63
2022/02/02 11:21:43;;;;;;;6.95;4.32;;;;;;;;;;5021950;28;20085;-63
2022/02/02 11:24:36;;;;;;;7.78;3.80;;;;;;;;;;5021360;28;20088;-63
2022/02/02 11:27:28;;;;;;;6.63;3.80;;;;;;;;;;5023770;28;20088;-63
2022/02/02 11:29:55;;;;;;;5.75;3.58;;;;;;;;;;5026135;28;20092;-63
2022/02/02 11:32:21;;;;;;;7.30;3.75;;;;;;;;;;5024611;28;20053;-63
2022/02/02 11:35:08;;;;;;;6.53;3.35;;;;;;;;;;5023424;28;20049;-63
2022/02/02 11:37:53;;;;;;;6.68;4.18;;;;;;;;;;5025927;28;20128;-63
2022/02/02 11:40:20;;;;;;;6.85;3.70;;;;;;;;;;5024091;28;20081;-63
2022/02/02 11:45:36;;;;;;;5.25;3.65;;;;;;;;;;5024318;28;20141;-63
2022/02/02 11:48:17;;;;;;;6.22;3.45;;;;;;;;;;5023071;28;20096;-63
2022/02/02 11:50:48;;;;;;;7.32;3.38;;;;;;;;;;5024703;28;20138;-64
2022/02/02 11:53:46;;;;;;;4.50;2.83;;;;;;;;;;5026077;28;20096;-63
2022/02/02 11:56:12;;;;;;;5.82;3.10;;;;;;;;;;5023136;28;20137;-63
2022/02/02 11:58:43;;;;;;;5.85;2.90;;;;;;;;;;5023591;28;20141;-63
2022/02/02 12:01:21;;;;;;;4.07;2.55;;;;;;;;;;5022540;28;20081;-65
2022/02/02 12:06:58;;;;;;;5.70;2.60;;;;;;;;;;5019903;28;20130;-64
2022/02/02 12:09:45;;;;;;;3.75;2.30;;;;;;;;;;5022222;28;20049;-64
2022/02/02 12:49:03;;;;;;;3.75;2.40;;;;;;;;;;4978478;28;20314;-64
2022/02/02 12:57:02;;;;;;;3.28;2.00;;;;;;;;;;5022643;28;20079;-63
2022/02/02 13:02:16;;;;;;;3.28;2.05;;;;;;;;;;5021122;28;20085;-63
2022/02/02 13:04:53;;;;;;;4.03;2.10;;;;;;;;;;5019376;28;20054;-63
2022/02/02 13:07:25;;;;;;;2.45;1.90;;;;;;;;;;5020940;28;20115;-63
2022/02/02 13:09:53;;;;;;;2.80;1.98;;;;;;;;;;5023420;28;20485;-63
2022/02/02 13:12:21;;;;;;;2.83;2.00;;;;;;;;;;5023708;28;20097;-63
2022/02/02 13:15:14;;;;;;;5.32;2.30;;;;;;;;;;5008701;28;20081;-63
2022/02/02 13:18:00;;;;;;;3.38;1.98;;;;;;;;;;5020628;28;20398;-64
2022/02/02 13:20:44;;;;;;;4.70;2.00;;;;;;;;;;5024120;28;20076;-63
2022/02/02 13:23:25;;;;;;;3.08;1.80;;;;;;;;;;5021265;28;20049;-63
2022/02/02 13:25:57;;;;;;;2.45;1.80;;;;;;;;;;5017600;28;20077;-63
2022/02/02 13:28:42;;;;;;;2.90;1.98;;;;;;;;;;5022926;28;20045;-63
2022/02/02 13:31:20;;;;;;;3.22;2.17;;;;;;;;;;5023158;28;20103;-63
2022/02/02 13:34:07;;;;;;;2.95;1.75;;;;;;;;;;5024363;28;20680;-63
2022/02/02 13:36:50;;;;;;;2.78;2.00;;;;;;;;;;5018166;28;20140;-64
2022/02/02 13:48:29;;;;;;;3.97;2.08;;;;;;;;;;5019775;28;20505;-63
2022/02/02 13:51:15;;;;;;;6.82;2.13;;;;;;;;;;5021600;28;20084;-63
2022/02/02 14:04:22;;;;;;;4.55;2.22;;;;;;;;;;5021334;28;20193;-63
2022/02/02 14:31:23;;;;;;;5.10;2.42;;;;;;;;;;5020732;28;20076;-63
2022/02/02 14:33:56;;;;;;;3.03;2.30;;;;;;;;;;5020551;28;20060;-63
2022/02/02 14:36:32;;;;;;;3.80;2.50;;;;;;;;;;5019649;28;20486;-64
2022/02/02 14:39:07;;;;;;;4.43;2.80;;;;;;;;;;5008042;28;20073;-63
2022/02/02 14:47:28;;;;;;;4.05;2.53;;;;;;;;;;4988219;28;20058;-63
2022/02/02 14:50:05;;;;;;;4.05;2.83;;;;;;;;;;5023413;28;20053;-63
2022/02/02 14:52:45;;;;;;;4.43;2.40;;;;;;;;;;5023110;28;20521;-63
2022/02/02 15:29:28;;;;;;;13.77;5.75;;;;;;;;;;5003885;28;20052;-63
2022/02/02 15:31:58;;;;;;;16.33;6.50;;;;;;;;;;5029744;28;20080;-63
2022/02/02 15:34:46;;;;;;;12.52;5.32;;;;;;;;;;5025732;28;20052;-63
2022/02/02 15:37:34;;;;;;;9.13;3.55;;;;;;;;;;5023322;28;20081;-63
2022/02/02 15:40:07;;;;;;;5.15;2.90;;;;;;;;;;5024649;28;20077;-63
2022/02/02 15:43:02;;;;;;;6.00;2.78;;;;;;;;;;5026059;28;20049;-63
2022/02/02 15:59:09;;;;;;;5.13;3.15;;;;;;;;;;5021835;28;20576;-63
2022/02/02 16:04:24;;;;;;;6.18;3.20;;;;;;;;;;5024903;28;20067;-63
2022/02/02 16:06:53;;;;;;;4.88;3.28;;;;;;;;;;5027213;28;20476;-64
2022/02/02 16:09:27;;;;;;;4.07;2.83;;;;;;;;;;5022922;28;20049;-63
2022/02/02 16:12:09;;;;;;;5.43;3.10;;;;;;;;;;5024328;28;20141;-64
2022/02/02 16:14:42;;;;;;;6.40;3.42;;;;;;;;;;5024120;28;20088;-64
2022/02/02 16:31:47;;;;;;;6.07;3.80;;;;;;;;;;4968407;28;20141;-64
2022/02/02 16:34:44;;;;;;;6.65;3.72;;;;;;;;;;5023905;28;20085;-63
2022/02/02 16:37:11;;;;;;;8.68;3.67;;;;;;;;;;5021009;28;20103;-63
2022/02/02 16:39:50;;;;;;;6.93;3.65;;;;;;;;;;5020445;28;20603;-63
2022/02/02 16:45:02;;;;;;;8.07;3.83;;;;;;;;;;5019755;28;20489;-64
2022/02/02 16:47:29;;;;;;;7.65;4.00;;;;;;;;;;5022665;28;20179;-63
2022/02/02 16:50:09;;;;;;;8.57;4.47;;;;;;;;;;5020243;28;20053;-63
2022/02/02 16:52:37;;;;;;;9.70;4.47;;;;;;;;;;5025147;28;20049;-63
2022/02/02 16:55:11;;;;;;;9.25;4.72;;;;;;;;;;5025545;28;20494;-63
2022/02/02 17:29:10;;;;;;;11.40;5.10;;;;;;;;;;5017350;28;20532;-63
2022/02/02 17:31:00;;;;;;;10.43;5.70;;;;;;;;;;5020307;28;20092;-63
2022/02/02 17:36:19;;;;;;;13.90;6.50;;;;;;;;;;5020747;28;20119;-63
2022/02/02 17:38:57;;;;;;;14.45;5.65;;;;;;;;;;5018823;28;20058;-63
2022/02/02 18:12:18;;;;;;;21.98;9.90;;;;;;;;;;5021230;28;20088;-63
2022/02/02 18:20:11;;;;;;;22.23;10.93;;;;;;;;;;5021142;28;20096;-63
2022/02/02 18:22:45;;;;;;;21.08;9.02;;;;;;;;;;5017896;28;20168;-63
2022/02/02 18:31:14;;;;;;;21.83;8.13;;;;;;;;;;5021406;28;20605;-63
2022/02/02 18:34:03;;;;;;;20.03;7.37;;;;;;;;;;5020764;28;20055;-63
2022/02/02 18:36:42;;;;;;;22.77;7.90;;;;;;;;;;5007682;28;20045;-63
2022/02/02 19:00:17;;;;;;;25.67;9.23;;;;;;;;;;5017579;28;20081;-62
2022/02/02 19:08:10;;;;;;;24.60;9.10;;;;;;;;;;5025208;28;20596;-62
2022/02/02 20:08:07;;;;;;;29.07;10.83;;;;;;;;;;5024679;28;20081;-62
2022/02/02 20:10:59;;;;;;;26.80;10.93;;;;;;;;;;5019481;28;20166;-62
2022/02/02 20:13:26;;;;;;;24.57;11.40;;;;;;;;;;5025279;28;20124;-62
2022/02/02 20:15:55;;;;;;;22.83;11.03;;;;;;;;;;5021779;28;20144;-62
2022/02/02 20:18:24;;;;;;;31.67;10.77;;;;;;;;;;5023126;28;20129;-62
2022/02/02 20:20:51;;;;;;;27.23;10.83;;;;;;;;;;5023328;28;20045;-62
2022/02/02 20:23:23;;;;;;;24.33;10.93;;;;;;;;;;5020463;28;20470;-62
2022/02/02 20:25:54;;;;;;;29.75;12.25;;;;;;;;;;5020224;28;20141;-62
2022/02/02 20:28:24;;;;;;;28.17;10.53;;;;;;;;;;5024712;28;20049;-62
2022/02/02 20:30:51;;;;;;;18.33;8.75;;;;;;;;;;5021327;28;20241;-62
2022/02/02 20:33:18;;;;;;;17.98;9.02;;;;;;;;;;5022031;28;20049;-62
2022/02/02 20:35:44;;;;;;;25.50;10.77;;;;;;;;;;5022465;28;20087;-62
2022/02/02 20:38:17;;;;;;;21.13;9.50;;;;;;;;;;5024362;28;20096;-62
2022/02/02 20:40:44;;;;;;;19.80;8.37;;;;;;;;;;5008509;28;20113;-62
2022/02/02 20:43:14;;;;;;;24.33;8.25;;;;;;;;;;5024311;28;20838;-62
2022/02/02 21:05:23;;;;;;;23.60;9.70;;;;;;;;;;5011473;28;20137;-62
2022/02/02 21:10:44;;;;;;;23.93;9.27;;;;;;;;;;5021052;28;20096;-62
2022/02/02 21:15:59;;;;;;;22.50;7.90;;;;;;;;;;5021143;28;20085;-62
2022/02/02 21:18:33;;;;;;;24.63;8.93;;;;;;;;;;5022390;28;20456;-63
2022/02/02 21:21:04;;;;;;;23.60;8.57;;;;;;;;;;5020253;28;20141;-62
2022/02/02 21:28:30;;;;;;;23.27;8.93;;;;;;;;;;5024063;28;20126;-62
2022/02/02 21:30:57;;;;;;;13.63;6.22;;;;;;;;;;5022341;28;20056;-62
2022/02/02 21:33:23;;;;;;;17.88;6.82;;;;;;;;;;5017985;28;20091;-62
2022/02/02 21:35:56;;;;;;;22.23;9.47;;;;;;;;;;5019369;28;20041;-62
2022/02/02 21:40:54;;;;;;;21.30;7.40;;;;;;;;;;5025280;28;20470;-63
2022/02/02 21:43:21;;;;;;;19.53;7.73;;;;;;;;;;5022406;28;20860;-62
2022/02/02 21:45:53;;;;;;;18.10;7.17;;;;;;;;;;5019537;28;20108;-62
2022/02/02 21:48:19;;;;;;;12.70;5.75;;;;;;;;;;5023966;28;20144;-62
2022/02/02 21:50:52;;;;;;;9.82;5.25;;;;;;;;;;5025518;28;20122;-62
2022/02/02 21:53:28;;;;;;;23.97;7.77;;;;;;;;;;5022548;28;20081;-62
2022/02/02 21:55:55;;;;;;;17.07;7.90;;;;;;;;;;5022999;28;20137;-62
2022/02/02 21:58:24;;;;;;;13.63;5.78;;;;;;;;;;5020869;28;20153;-62
2022/02/02 22:00:51;;;;;;;16.53;7.30;;;;;;;;;;5017997;28;20505;-62
2022/02/02 22:03:17;;;;;;;17.77;7.47;;;;;;;;;;5021219;28;20103;-62
2022/02/02 22:05:44;;;;;;;13.27;6.10;;;;;;;;;;5020511;28;20081;-62
2022/02/02 22:08:13;;;;;;;19.27;7.87;;;;;;;;;;5018596;28;20461;-62
2022/02/02 22:10:40;;;;;;;17.93;8.07;;;;;;;;;;5020231;28;20597;-62
2022/02/02 22:13:08;;;;;;;12.77;5.72;;;;;;;;;;5024439;28;20080;-62
2022/02/02 22:15:50;;;;;;;14.63;6.67;;;;;;;;;;5019547;28;20140;-62
2022/02/02 22:18:18;;;;;;;13.63;6.90;;;;;;;;;;5021526;28;20124;-62
2022/02/02 22:20:46;;;;;;;13.53;6.37;;;;;;;;;;5019121;28;20508;-62
2022/02/02 22:23:12;;;;;;;14.95;6.50;;;;;;;;;;5017984;28;20053;-62
2022/02/02 22:25:39;;;;;;;18.70;6.82;;;;;;;;;;5019091;28;20081;-62
2022/02/02 22:28:11;;;;;;;14.10;6.23;;;;;;;;;;5022077;28;20566;-62
2022/02/02 22:30:38;;;;;;;15.60;6.70;;;;;;;;;;5021455;28;20087;-62
2022/02/02 22:33:04;;;;;;;16.65;4.88;;;;;;;;;;5019632;28;20137;-62
2022/02/02 22:35:31;;;;;;;17.90;6.72;;;;;;;;;;5020976;28;20137;-62
2022/02/02 22:37:57;;;;;;;16.00;6.63;;;;;;;;;;5024514;28;20132;-62
2022/02/02 22:40:27;;;;;;;16.05;6.63;;;;;;;;;;5026175;28;20096;-62
2022/02/02 22:42:54;;;;;;;13.60;6.47;;;;;;;;;;5026017;28;20140;-62
2022/02/02 22:45:20;;;;;;;13.98;4.95;;;;;;;;;;5021048;28;20168;-62
2022/02/02 22:47:48;;;;;;;14.75;6.38;;;;;;;;;;5025392;28;20081;-62
2022/02/02 22:50:21;;;;;;;15.27;5.93;;;;;;;;;;5019844;28;20486;-62
2022/02/02 22:52:52;;;;;;;15.47;6.70;;;;;;;;;;5025943;28;20081;-62
2022/02/02 22:55:19;;;;;;;17.83;7.47;;;;;;;;;;5025635;28;20084;-63
2022/02/02 22:57:47;;;;;;;11.85;6.53;;;;;;;;;;5024402;28;20093;-62
2022/02/02 23:00:18;;;;;;;17.87;7.03;;;;;;;;;;5024042;28;20053;-62
2022/02/02 23:02:56;;;;;;;17.23;6.40;;;;;;;;;;5027126;28;20092;-62
2022/02/02 23:05:30;;;;;;;15.90;6.93;;;;;;;;;;5027224;28;20084;-62
2022/02/02 23:07:58;;;;;;;21.47;6.53;;;;;;;;;;5026148;28;20128;-62
2022/02/02 23:10:25;;;;;;;18.57;6.83;;;;;;;;;;5020863;28;20057;-62
2022/02/02 23:12:51;;;;;;;14.52;4.95;;;;;;;;;;5024779;28;20152;-62
2022/02/02 23:15:32;;;;;;;17.80;6.13;;;;;;;;;;5025675;28;20132;-62
2022/02/02 23:18:04;;;;;;;17.87;5.70;;;;;;;;;;5024604;28;20064;-62
2022/02/02 23:20:32;;;;;;;13.63;6.17;;;;;;;;;;5025980;28;20140;-62
2022/02/02 23:22:58;;;;;;;20.70;6.13;;;;;;;;;;5025762;28;20249;-62
2022/02/02 23:25:26;;;;;;;11.50;5.82;;;;;;;;;;5024267;28;20285;-62
2022/02/02 23:28:01;;;;;;;15.10;6.83;;;;;;;;;;5023563;28;20471;-62
2022/02/02 23:30:28;;;;;;;17.00;6.40;;;;;;;;;;5026421;28;20081;-63
2022/02/02 23:32:57;;;;;;;17.17;4.65;;;;;;;;;;5021913;28;20472;-62
2022/02/02 23:35:26;;;;;;;23.03;6.93;;;;;;;;;;5025069;28;20049;-62
2022/02/02 23:37:57;;;;;;;24.48;6.45;;;;;;;;;;5027856;28;20045;-62
2022/02/02 23:40:24;;;;;;;18.97;5.43;;;;;;;;;;5027018;28;20565;-63
2022/02/02 23:42:59;;;;;;;17.63;5.72;;;;;;;;;;5025490;28;20735;-62
2022/02/02 23:45:25;;;;;;;18.38;6.32;;;;;;;;;;5023427;28;20046;-62
2022/02/02 23:47:53;;;;;;;11.90;4.70;;;;;;;;;;5020228;28;20141;-63
2022/02/02 23:50:20;;;;;;;15.43;5.75;;;;;;;;;;5024625;28;20478;-63
2022/02/02 23:52:54;;;;;;;18.13;6.60;;;;;;;;;;5023222;28;20160;-62
2022/02/02 23:55:31;;;;;;;16.60;6.50;;;;;;;;;;5022944;28;20070;-62
